createdAt,value
2023-02-19T00:01:51.760Z,8.55
2023-02-19T00:04:22.689Z,12.93
2023-02-19T00:06:50.427Z,7.93
2023-02-19T00:09:19.246Z,36.25
2023-02-19T00:11:47.907Z,16.67
2023-02-19T00:14:18.211Z,13.73
2023-02-19T00:16:45.884Z,12.43
2023-02-19T00:19:16.602Z,8.32
2023-02-19T00:21:44.120Z,13.68
2023-02-19T00:24:13.265Z,9.95
2023-02-19T00:26:41.520Z,8.65
2023-02-19T00:29:12.919Z,7.10
2023-02-19T00:31:41.261Z,10.43
2023-02-19T00:34:10.431Z,6.10
2023-02-19T00:36:39.298Z,8.70
2023-02-19T00:39:08.158Z,7.53
2023-02-19T00:41:35.890Z,8.98
2023-02-19T00:44:06.362Z,5.53
2023-02-19T00:46:39.851Z,6.05
2023-02-19T00:49:08.748Z,8.13
2023-02-19T00:51:38.101Z,10.23
2023-02-19T00:54:06.361Z,20.83
2023-02-19T00:56:34.023Z,7.60
2023-02-19T00:59:01.795Z,7.03
2023-02-19T01:01:28.852Z,8.20
2023-02-19T01:03:56.298Z,10.18
2023-02-19T01:06:23.801Z,8.75
2023-02-19T01:08:51.504Z,7.82
2023-02-19T01:11:20.388Z,7.95
2023-02-19T01:13:48.009Z,8.45
2023-02-19T01:16:24.737Z,7.65
2023-02-19T01:18:52.932Z,8.38
2023-02-19T01:21:22.957Z,5.68
2023-02-19T01:23:52.314Z,7.00
2023-02-19T01:26:22.945Z,6.85
2023-02-19T01:28:51.552Z,7.20
2023-02-19T01:31:21.672Z,9.32
2023-02-19T01:33:56.387Z,5.45
2023-02-19T01:36:24.237Z,8.40
2023-02-19T01:38:52.066Z,8.32
2023-02-19T01:41:25.139Z,7.63
2023-02-19T01:44:08.927Z,7.28
2023-02-19T01:46:37.835Z,5.60
2023-02-19T01:49:14.877Z,5.40
2023-02-19T01:51:49.298Z,4.70
2023-02-19T01:54:22.788Z,5.35
2023-02-19T01:56:51.339Z,6.15
2023-02-19T01:59:19.266Z,4.93
2023-02-19T02:01:46.584Z,4.80
2023-02-19T02:04:14.691Z,5.63
2023-02-19T02:06:54.815Z,6.00
2023-02-19T02:09:48.308Z,4.63
2023-02-19T02:12:15.718Z,4.18
2023-02-19T02:14:46.184Z,4.65
2023-02-19T02:17:16.136Z,5.13
2023-02-19T02:20:08.144Z,5.70
2023-02-19T02:22:52.919Z,4.80
2023-02-19T02:25:41.463Z,6.30
2023-02-19T02:28:08.927Z,6.05
2023-02-19T02:30:56.102Z,4.45
2023-02-19T02:33:45.728Z,6.05
2023-02-19T02:36:27.648Z,6.07
2023-02-19T02:38:56.916Z,4.90
2023-02-19T02:41:25.204Z,4.15
2023-02-19T02:43:52.756Z,4.82
2023-02-19T02:46:30.080Z,3.55
2023-02-19T02:49:00.148Z,4.57
2023-02-19T02:51:31.907Z,5.28
2023-02-19T02:54:29.547Z,4.47
2023-02-19T02:56:59.864Z,3.10
2023-02-19T02:59:34.752Z,4.80
2023-02-19T03:02:14.254Z,4.80
2023-02-19T03:05:27.832Z,5.38
2023-02-19T03:08:08.108Z,3.95
2023-02-19T03:11:21.756Z,4.53
2023-02-19T03:14:12.987Z,3.08
2023-02-19T03:17:01.751Z,3.47
2023-02-19T03:19:32.974Z,5.70
2023-02-19T03:22:01.961Z,5.32
2023-02-19T03:24:51.699Z,5.30
2023-02-19T03:27:21.408Z,5.18
2023-02-19T03:29:56.524Z,5.90
2023-02-19T03:32:39.887Z,5.57
2023-02-19T03:35:14.936Z,5.85
2023-02-19T03:37:53.069Z,4.32
2023-02-19T03:40:25.006Z,4.38
2023-02-19T03:43:07.523Z,3.95
2023-02-19T03:46:08.745Z,4.18
2023-02-19T03:48:40.347Z,4.15
2023-02-19T03:51:24.356Z,4.43
2023-02-19T03:54:09.542Z,4.63
2023-02-19T03:59:44.609Z,4.55
2023-02-19T04:02:42.918Z,4.22
2023-02-19T04:05:15.871Z,4.28
2023-02-19T04:07:48.051Z,5.10
2023-02-19T04:10:20.665Z,3.72
2023-02-19T04:13:03.988Z,4.88
2023-02-19T04:15:34.000Z,5.25
2023-02-19T04:18:07.726Z,5.05
2023-02-19T04:20:41.883Z,4.93
2023-02-19T04:23:09.580Z,3.72
2023-02-19T04:25:39.057Z,3.83
2023-02-19T04:28:08.823Z,3.95
2023-02-19T04:30:35.877Z,4.65
2023-02-19T04:33:03.194Z,4.68
2023-02-19T04:35:30.256Z,3.80
2023-02-19T04:37:57.769Z,4.07
2023-02-19T04:40:24.827Z,15.25
2023-02-19T04:42:52.302Z,3.92
2023-02-19T04:45:19.371Z,4.38
2023-02-19T04:47:46.801Z,4.68
2023-02-19T04:50:14.315Z,4.10
2023-02-19T04:52:41.976Z,3.85
2023-02-19T04:55:09.757Z,4.60
2023-02-19T04:57:37.094Z,5.05
2023-02-19T05:00:04.790Z,3.47
2023-02-19T05:02:32.141Z,4.82
2023-02-19T05:04:59.353Z,3.88
2023-02-19T05:07:27.024Z,3.92
2023-02-19T05:09:54.053Z,6.10
2023-02-19T05:12:21.632Z,5.65
2023-02-19T05:14:49.352Z,5.50
2023-02-19T05:17:17.499Z,5.05
2023-02-19T05:19:45.108Z,4.82
2023-02-19T05:22:12.627Z,3.30
2023-02-19T05:24:39.753Z,4.18
2023-02-19T05:27:07.366Z,4.47
2023-02-19T05:29:34.802Z,5.22
2023-02-19T05:32:02.121Z,5.38
2023-02-19T05:34:29.380Z,4.18
2023-02-19T05:36:56.927Z,4.70
2023-02-19T05:39:24.018Z,4.50
2023-02-19T05:41:51.314Z,4.47
2023-02-19T05:44:18.458Z,4.30
2023-02-19T05:46:45.805Z,4.75
2023-02-19T05:49:13.380Z,4.25
2023-02-19T05:51:40.681Z,4.20
2023-02-19T05:54:07.795Z,5.53
2023-02-19T05:56:42.668Z,6.80
2023-02-19T05:59:21.593Z,4.35
2023-02-19T06:01:51.008Z,4.95
2023-02-19T06:04:20.007Z,4.15
2023-02-19T06:06:48.329Z,3.22
2023-02-19T06:09:15.966Z,17.75
2023-02-19T06:11:44.098Z,11.68
2023-02-19T06:14:13.901Z,5.30
2023-02-19T06:16:41.750Z,4.63
2023-02-19T06:19:09.614Z,4.90
2023-02-19T06:21:39.920Z,3.50
2023-02-19T06:24:09.168Z,4.28
2023-02-19T06:26:37.090Z,5.30
2023-02-19T06:29:04.675Z,5.45
2023-02-19T06:31:32.257Z,4.07
2023-02-19T06:33:59.362Z,5.05
2023-02-19T06:36:26.867Z,4.05
2023-02-19T06:38:53.908Z,5.13
2023-02-19T06:41:21.288Z,7.22
2023-02-19T06:43:48.458Z,4.07
2023-02-19T06:46:15.821Z,3.85
2023-02-19T06:48:48.738Z,4.53
2023-02-19T06:51:19.566Z,4.57
2023-02-19T06:53:47.058Z,4.68
2023-02-19T06:56:28.204Z,6.20
2023-02-19T06:58:57.878Z,6.28
2023-02-19T07:01:25.896Z,8.00
2023-02-19T07:03:54.846Z,7.18
2023-02-19T07:06:23.984Z,12.50
2023-02-19T07:08:51.964Z,17.50
2023-02-19T07:11:19.629Z,12.13
2023-02-19T07:13:47.557Z,11.10
2023-02-19T07:16:15.457Z,9.35
2023-02-19T07:18:42.596Z,16.92
2023-02-19T07:21:13.554Z,6.72
2023-02-19T07:23:41.792Z,19.23
2023-02-19T07:26:10.652Z,11.05
2023-02-19T07:28:37.795Z,10.05
2023-02-19T07:31:05.400Z,13.77
2023-02-19T07:33:32.863Z,13.95
2023-02-19T07:36:00.782Z,10.90
2023-02-19T07:38:30.771Z,19.08
2023-02-19T07:41:00.428Z,24.58
2023-02-19T07:43:32.117Z,23.67
2023-02-19T07:46:02.628Z,20.10
2023-02-19T07:48:29.680Z,28.58
2023-02-19T07:50:59.585Z,16.63
2023-02-19T07:53:28.980Z,11.90
2023-02-19T07:56:05.535Z,10.77
2023-02-19T07:58:33.480Z,9.73
2023-02-19T08:01:08.668Z,14.07
2023-02-19T08:06:06.896Z,20.20
2023-02-19T08:08:34.293Z,24.10
2023-02-19T08:11:21.082Z,21.20
2023-02-19T08:13:50.185Z,15.95
2023-02-19T08:16:29.672Z,10.05
2023-02-19T08:19:04.315Z,13.63
2023-02-19T08:21:33.493Z,16.48
2023-02-19T08:24:02.144Z,11.10
2023-02-19T08:26:34.126Z,8.98
2023-02-19T08:29:01.688Z,9.38
2023-02-19T08:31:30.164Z,13.18
2023-02-19T08:33:57.630Z,13.60
2023-02-19T08:36:25.696Z,17.90
2023-02-19T08:38:52.769Z,20.98
2023-02-19T08:41:22.197Z,15.00
2023-02-19T08:43:49.768Z,14.60
2023-02-19T08:46:17.135Z,15.52
2023-02-19T08:48:47.239Z,14.63
2023-02-19T08:51:14.934Z,15.45
2023-02-19T08:53:42.610Z,19.33
2023-02-19T08:56:13.080Z,14.50
2023-02-19T08:58:44.854Z,12.48
2023-02-19T09:01:18.339Z,13.50
2023-02-19T09:03:46.061Z,11.63
2023-02-19T09:06:20.695Z,13.90
2023-02-19T09:08:49.357Z,23.75
2023-02-19T09:11:17.094Z,16.02
2023-02-19T09:13:44.603Z,12.98
2023-02-19T09:16:12.540Z,16.38
2023-02-19T09:18:40.057Z,15.23
2023-02-19T09:21:11.034Z,21.85
2023-02-19T09:23:38.319Z,14.00
2023-02-19T09:26:07.656Z,20.38
2023-02-19T09:28:34.766Z,20.73
2023-02-19T09:31:06.568Z,11.60
2023-02-19T09:33:35.826Z,10.73
2023-02-19T09:36:03.590Z,10.93
2023-02-19T09:38:31.028Z,9.32
2023-02-19T09:40:59.887Z,11.63
2023-02-19T09:43:29.910Z,37.92
2023-02-19T09:46:29.216Z,28.98
2023-02-19T09:49:03.588Z,14.75
2023-02-19T09:51:34.523Z,12.55
2023-02-19T09:54:04.158Z,38.47
2023-02-19T09:56:31.585Z,12.05
2023-02-19T09:59:00.062Z,8.13
2023-02-19T10:01:34.535Z,4.85
2023-02-19T10:04:02.051Z,3.50
2023-02-19T10:06:30.278Z,6.00
2023-02-19T10:09:21.640Z,5.03
2023-02-19T10:11:49.917Z,9.13
2023-02-19T10:14:41.837Z,26.08
2023-02-19T10:17:20.800Z,20.50
2023-02-19T10:19:48.302Z,37.75
2023-02-19T10:22:19.253Z,27.75
2023-02-19T10:24:51.827Z,60.15
2023-02-19T10:27:19.330Z,37.38
2023-02-19T10:29:48.427Z,24.55
2023-02-19T10:32:20.969Z,116.88
2023-02-19T10:34:48.438Z,17.10
2023-02-19T10:37:19.181Z,28.50
2023-02-19T10:39:47.975Z,17.00
2023-02-19T10:42:24.291Z,14.77
2023-02-19T10:44:58.585Z,8.32
2023-02-19T10:47:27.250Z,6.60
2023-02-19T10:49:58.370Z,5.20
2023-02-19T10:52:32.712Z,5.85
2023-02-19T10:55:23.580Z,6.72
2023-02-19T10:57:51.078Z,6.45
2023-02-19T11:00:22.896Z,10.95
2023-02-19T11:02:52.957Z,7.22
2023-02-19T11:05:23.265Z,9.63
2023-02-19T11:07:55.958Z,9.50
2023-02-19T11:10:29.210Z,15.88
2023-02-19T11:13:07.939Z,18.23
2023-02-19T11:15:37.215Z,23.38
2023-02-19T11:18:14.061Z,14.65
2023-02-19T11:20:54.503Z,16.60
2023-02-19T11:23:32.275Z,15.57
2023-02-19T11:26:06.528Z,31.85
2023-02-19T11:28:37.342Z,15.60
2023-02-19T11:31:19.739Z,30.70
2023-02-19T11:34:15.756Z,27.58
2023-02-19T11:36:53.764Z,42.95
2023-02-19T11:39:33.774Z,77.50
2023-02-19T11:42:09.738Z,21.05
2023-02-19T11:44:39.153Z,56.35
2023-02-19T11:47:31.764Z,85.53
2023-02-19T11:50:13.543Z,57.35
2023-02-19T11:53:15.557Z,45.25
2023-02-19T11:55:59.032Z,42.33
2023-02-19T11:58:56.274Z,41.13
2023-02-19T12:01:42.200Z,43.03
2023-02-19T12:04:27.165Z,27.27
2023-02-19T12:07:15.916Z,41.17
2023-02-19T12:09:55.852Z,90.03
2023-02-19T12:13:00.786Z,52.10
2023-02-19T12:15:28.328Z,26.58
2023-02-19T12:18:33.353Z,21.88
2023-02-19T12:21:11.090Z,29.17
2023-02-19T12:24:06.364Z,28.85
2023-02-19T12:26:55.671Z,66.38
2023-02-19T12:29:32.355Z,28.85
2023-02-19T12:32:20.188Z,15.10
2023-02-19T12:34:59.611Z,9.35
2023-02-19T12:37:42.011Z,4.55
2023-02-19T12:40:27.192Z,14.23
2023-02-19T12:43:09.106Z,19.88
2023-02-19T12:45:43.068Z,14.52
2023-02-19T12:48:26.874Z,15.00
2023-02-19T12:51:02.666Z,21.50
2023-02-19T12:53:47.344Z,16.30
2023-02-19T12:56:29.308Z,18.73
2023-02-19T12:59:15.805Z,14.93
2023-02-19T13:02:11.546Z,8.27
2023-02-19T13:04:51.284Z,7.70
2023-02-19T13:07:46.549Z,109.07
2023-02-19T13:10:28.867Z,72.73
2023-02-19T13:13:01.662Z,45.22
2023-02-19T13:15:42.270Z,66.95
2023-02-19T13:18:32.850Z,74.40
2023-02-19T13:21:01.021Z,103.28
2023-02-19T13:23:57.268Z,88.13
2023-02-19T13:26:43.857Z,49.80
2023-02-19T13:29:27.732Z,55.00
2023-02-19T13:32:14.181Z,22.77
2023-02-19T13:34:51.265Z,22.45
2023-02-19T13:37:22.018Z,22.67
2023-02-19T13:39:52.172Z,23.55
2023-02-19T13:42:27.244Z,81.95
2023-02-19T13:47:49.836Z,8.65
2023-02-19T13:50:20.982Z,9.85
2023-02-19T13:52:48.346Z,9.60
2023-02-19T13:55:44.195Z,5.22
2023-02-19T13:58:53.986Z,9.23
2023-02-19T14:01:51.383Z,4.85
2023-02-19T14:04:26.392Z,10.32
2023-02-19T14:07:05.947Z,4.85
2023-02-19T14:09:43.860Z,24.15
2023-02-19T14:12:15.841Z,11.15
2023-02-19T14:14:46.723Z,9.82
2023-02-19T14:17:40.253Z,11.95
2023-02-19T14:20:16.391Z,9.32
2023-02-19T14:22:46.792Z,5.35
2023-02-19T14:25:31.758Z,5.43
2023-02-19T14:28:17.069Z,8.52
2023-02-19T14:31:20.258Z,5.88
2023-02-19T14:33:50.466Z,4.43
2023-02-19T14:36:45.061Z,8.50
2023-02-19T14:39:16.860Z,10.13
2023-02-19T14:41:53.785Z,11.45
2023-02-19T14:44:25.197Z,10.88
2023-02-19T14:49:47.941Z,103.22
2023-02-19T14:52:45.660Z,27.88
2023-02-19T14:55:36.228Z,23.13
2023-02-19T14:58:26.155Z,22.05
2023-02-19T15:00:54.871Z,27.60
2023-02-19T15:03:24.767Z,56.85
2023-02-19T15:06:17.541Z,50.25
2023-02-19T15:08:48.404Z,66.07
2023-02-19T15:11:21.587Z,51.95
2023-02-19T15:13:52.634Z,86.72
2023-02-19T15:16:25.314Z,30.33
2023-02-19T15:18:54.452Z,24.02
2023-02-19T15:21:32.654Z,20.50
2023-02-19T15:24:05.959Z,43.38
2023-02-19T15:26:37.404Z,76.95
2023-02-19T15:29:11.125Z,70.68
2023-02-19T15:31:55.991Z,66.80
2023-02-19T15:34:33.057Z,42.38
2023-02-19T15:37:05.262Z,80.20
2023-02-19T15:39:39.871Z,97.28
2023-02-19T15:42:17.545Z,24.73
2023-02-19T15:44:57.182Z,53.00
2023-02-19T15:47:33.659Z,36.20
2023-02-19T15:50:18.612Z,17.50
2023-02-19T15:53:09.932Z,22.98
2023-02-19T15:55:45.522Z,40.38
2023-02-19T15:58:34.881Z,26.48
2023-02-19T16:01:11.004Z,24.67
2023-02-19T16:03:38.999Z,30.55
2023-02-19T16:06:10.436Z,17.73
2023-02-19T16:08:39.958Z,62.97
2023-02-19T16:11:32.968Z,70.78
2023-02-19T16:14:37.088Z,37.03
2023-02-19T16:17:10.654Z,58.78
2023-02-19T16:19:53.268Z,47.97
2023-02-19T16:22:24.426Z,27.10
2023-02-19T16:24:55.887Z,33.67
2023-02-19T16:27:41.301Z,13.18
2023-02-19T16:30:17.922Z,17.42
2023-02-19T16:32:47.019Z,13.48
2023-02-19T16:35:36.796Z,35.35
2023-02-19T16:38:13.982Z,18.80
2023-02-19T16:41:06.133Z,29.80
2023-02-19T16:43:43.288Z,24.00
2023-02-19T16:46:12.464Z,25.77
2023-02-19T16:48:39.694Z,41.33
2023-02-19T16:51:09.018Z,54.97
2023-02-19T16:53:36.356Z,36.63
2023-02-19T16:56:03.961Z,34.15
2023-02-19T16:58:31.277Z,43.45
2023-02-19T17:01:01.988Z,31.83
2023-02-19T17:03:29.149Z,33.83
2023-02-19T17:05:57.005Z,32.03
2023-02-19T17:08:39.048Z,21.52
2023-02-19T17:11:12.819Z,24.48
2023-02-19T17:13:40.763Z,18.85
2023-02-19T17:16:08.613Z,14.95
2023-02-19T17:18:35.939Z,27.77
2023-02-19T17:21:21.057Z,19.50
2023-02-19T17:23:48.718Z,18.80
2023-02-19T17:26:19.970Z,22.15
2023-02-19T17:28:47.795Z,19.77
2023-02-19T17:31:15.703Z,15.40
2023-02-19T17:33:44.790Z,17.40
2023-02-19T17:36:20.133Z,14.40
2023-02-19T17:41:14.542Z,14.38
2023-02-19T17:43:44.467Z,13.43
2023-02-19T17:46:24.306Z,9.93
2023-02-19T17:48:51.763Z,9.60
2023-02-19T17:51:19.650Z,11.98
2023-02-19T17:53:46.965Z,13.00
2023-02-19T17:56:20.915Z,14.07
2023-02-19T17:58:48.378Z,12.30
2023-02-19T18:01:16.215Z,14.45
2023-02-19T18:03:43.956Z,13.90
2023-02-19T18:06:11.485Z,19.10
2023-02-19T18:08:38.787Z,28.65
2023-02-19T18:11:08.591Z,25.83
2023-02-19T18:13:36.830Z,17.23
2023-02-19T18:16:05.801Z,15.30
2023-02-19T18:18:32.954Z,12.55
2023-02-19T18:21:00.933Z,17.40
2023-02-19T18:23:31.295Z,8.65
2023-02-19T18:26:01.473Z,14.23
2023-02-19T18:28:28.644Z,11.20
2023-02-19T18:30:58.280Z,11.77
2023-02-19T18:33:26.046Z,6.80
2023-02-19T18:35:53.844Z,8.82
2023-02-19T18:38:21.334Z,7.47
2023-02-19T18:40:49.839Z,7.72
2023-02-19T18:43:16.999Z,38.45
2023-02-19T18:45:45.378Z,36.90
2023-02-19T18:48:13.105Z,13.38
2023-02-19T18:50:40.572Z,6.15
2023-02-19T18:53:07.676Z,9.85
2023-02-19T18:55:35.172Z,6.20
2023-02-19T18:58:02.450Z,6.05
2023-02-19T19:00:30.154Z,6.28
2023-02-19T19:02:59.730Z,50.08
2023-02-19T19:05:27.610Z,143.50
2023-02-19T19:07:57.591Z,75.60
2023-02-19T19:10:25.522Z,10.07
2023-02-19T19:12:54.166Z,10.02
2023-02-19T19:15:24.879Z,10.25
2023-02-19T19:17:52.218Z,8.50
2023-02-19T19:20:21.448Z,10.48
2023-02-19T19:22:52.746Z,11.43
2023-02-19T19:25:21.488Z,11.70
2023-02-19T19:27:50.749Z,7.68
2023-02-19T19:30:19.996Z,6.57
2023-02-19T19:32:51.838Z,8.25
2023-02-19T19:35:24.352Z,6.65
2023-02-19T19:37:51.791Z,17.75
2023-02-19T19:40:19.972Z,7.72
2023-02-19T19:42:47.705Z,10.30
2023-02-19T19:45:17.451Z,9.70
2023-02-19T19:47:44.519Z,4.97
2023-02-19T19:50:13.245Z,5.60
2023-02-19T19:52:40.643Z,8.95
2023-02-19T19:55:08.917Z,7.93
2023-02-19T19:57:36.382Z,9.40
2023-02-19T20:00:04.767Z,21.55
2023-02-19T20:02:39.462Z,11.75
2023-02-19T20:05:07.394Z,6.25
2023-02-19T20:07:34.512Z,12.45
2023-02-19T20:10:01.660Z,14.05
2023-02-19T20:12:29.528Z,10.93
2023-02-19T20:14:57.067Z,18.77
2023-02-19T20:17:27.417Z,28.85
2023-02-19T20:19:56.670Z,31.95
2023-02-19T20:22:24.740Z,51.17
2023-02-19T20:24:53.855Z,31.70
2023-02-19T20:27:22.752Z,21.67
2023-02-19T20:29:50.280Z,43.80
2023-02-19T20:32:21.380Z,26.85
2023-02-19T20:34:51.659Z,43.45
2023-02-19T20:37:19.433Z,35.42
2023-02-19T20:39:46.481Z,19.13
2023-02-19T20:42:16.765Z,21.20
2023-02-19T20:44:45.228Z,21.00
2023-02-19T20:47:12.806Z,23.95
2023-02-19T20:49:45.853Z,26.33
2023-02-19T20:52:15.863Z,17.60
2023-02-19T20:54:44.406Z,16.42
2023-02-19T20:57:14.305Z,18.38
2023-02-19T20:59:44.263Z,19.20
2023-02-19T21:02:24.930Z,15.65
2023-02-19T21:04:52.179Z,14.65
2023-02-19T21:07:20.010Z,15.90
2023-02-19T21:09:47.062Z,12.82
2023-02-19T21:12:14.449Z,11.20
2023-02-19T21:14:41.586Z,14.30
2023-02-19T21:17:09.712Z,12.32
2023-02-19T21:19:36.945Z,12.25
2023-02-19T21:22:04.760Z,14.90
2023-02-19T21:24:32.788Z,13.25
2023-02-19T21:27:00.248Z,10.88
2023-02-19T21:29:27.782Z,8.75
2023-02-19T21:31:57.206Z,15.02
2023-02-19T21:34:29.303Z,11.75
2023-02-19T21:36:57.381Z,10.60
2023-02-19T21:39:27.782Z,11.38
2023-02-19T21:41:55.370Z,11.13
2023-02-19T21:44:22.490Z,9.32
2023-02-19T21:46:49.948Z,12.02
2023-02-19T21:49:17.673Z,12.27
2023-02-19T21:51:47.886Z,12.32
2023-02-19T21:54:21.694Z,11.15
2023-02-19T21:56:49.064Z,11.65
2023-02-19T21:59:21.612Z,11.52
2023-02-19T22:01:50.550Z,10.95
2023-02-19T22:04:20.359Z,12.68
2023-02-19T22:06:47.784Z,11.10
2023-02-19T22:09:15.641Z,9.60
2023-02-19T22:11:43.154Z,10.98
2023-02-19T22:14:10.275Z,11.73
2023-02-19T22:16:37.798Z,11.68
2023-02-19T22:19:04.961Z,6.40
2023-02-19T22:21:32.738Z,7.97
2023-02-19T22:24:01.768Z,7.55
2023-02-19T22:26:32.190Z,8.35
2023-02-19T22:28:59.790Z,13.57
2023-02-19T22:31:28.356Z,7.72
2023-02-19T22:33:57.725Z,6.18
2023-02-19T22:36:27.715Z,7.25
2023-02-19T22:38:55.190Z,7.50
2023-02-19T22:41:23.180Z,6.97
2023-02-19T22:43:50.445Z,6.38
2023-02-19T22:46:20.626Z,5.75
2023-02-19T22:48:47.781Z,4.57
2023-02-19T22:51:21.323Z,4.95
2023-02-19T22:53:52.322Z,5.72
2023-02-19T22:56:22.254Z,4.65
2023-02-19T22:58:50.575Z,5.18
2023-02-19T23:01:18.309Z,4.00
2023-02-19T23:03:50.929Z,3.75
2023-02-19T23:06:25.752Z,4.30
2023-02-19T23:08:58.225Z,5.00
2023-02-19T23:11:31.122Z,4.75
2023-02-19T23:13:58.666Z,3.13
2023-02-19T23:16:26.577Z,3.67
2023-02-19T23:18:55.358Z,3.60
2023-02-19T23:21:23.398Z,3.60
2023-02-19T23:23:53.095Z,3.53
2023-02-19T23:26:20.523Z,4.05
2023-02-19T23:28:48.028Z,4.03
2023-02-19T23:31:16.223Z,3.17
2023-02-19T23:33:43.915Z,2.90
2023-02-19T23:36:13.080Z,3.70
2023-02-19T23:38:40.856Z,3.50
2023-02-19T23:45:16.638Z,4.03
2023-02-19T23:47:43.611Z,3.75
2023-02-19T23:50:11.085Z,5.95
2023-02-19T23:52:38.084Z,3.85
2023-02-19T23:55:05.838Z,5.00
2023-02-19T23:57:33.303Z,4.13
